createdAt,value
2023-03-27T00:00:10.807Z,96555.06
2023-03-27T00:02:38.900Z,96570.66
2023-03-27T00:05:08.165Z,96577.91
2023-03-27T00:07:37.243Z,96594.00
2023-03-27T00:10:05.346Z,96595.94
2023-03-27T00:12:34.930Z,96606.50
2023-03-27T00:15:02.974Z,96612.00
2023-03-27T00:17:30.792Z,96609.91
2023-03-27T00:19:59.357Z,96620.53
2023-03-27T00:22:27.104Z,96627.66
2023-03-27T00:24:54.861Z,96624.78
2023-03-27T00:27:22.636Z,96602.72
2023-03-27T00:29:53.996Z,96642.69
2023-03-27T00:32:22.173Z,96649.94
2023-03-27T00:34:50.019Z,96638.03
2023-03-27T00:37:18.146Z,96657.28
2023-03-27T00:39:50.069Z,96663.00
2023-03-27T00:42:22.994Z,96668.47
2023-03-27T00:44:53.289Z,96677.47
2023-03-27T00:47:34.584Z,96674.44
2023-03-27T00:50:04.991Z,96689.16
2023-03-27T00:52:33.310Z,96691.22
2023-03-27T00:55:04.053Z,96691.59
2023-03-27T00:57:32.489Z,96691.59
2023-03-27T01:00:08.936Z,96699.81
2023-03-27T01:02:37.550Z,96701.63
2023-03-27T01:05:06.499Z,96711.34
2023-03-27T01:07:34.523Z,96706.47
2023-03-27T01:10:02.605Z,96715.28
2023-03-27T01:12:39.143Z,96721.59
2023-03-27T01:15:18.662Z,96725.19
2023-03-27T01:17:58.217Z,96738.19
2023-03-27T01:20:36.815Z,96729.72
2023-03-27T01:24:00.253Z,96746.22
2023-03-27T01:26:51.824Z,96742.91
2023-03-27T01:29:22.999Z,96743.00
2023-03-27T01:32:08.408Z,96752.72
2023-03-27T01:35:15.769Z,96747.63
2023-03-27T01:38:00.123Z,96754.63
2023-03-27T01:40:32.134Z,96768.47
2023-03-27T01:43:02.306Z,96775.34
2023-03-27T01:45:37.538Z,96782.31
2023-03-27T01:48:08.601Z,96721.44
2023-03-27T01:50:40.522Z,96778.47
2023-03-27T01:53:13.543Z,96803.50
2023-03-27T01:55:46.995Z,96807.84
2023-03-27T01:58:16.073Z,96808.81
2023-03-27T02:00:52.263Z,96814.81
2023-03-27T02:03:35.247Z,96815.81
2023-03-27T02:06:07.761Z,96805.50
2023-03-27T02:08:39.927Z,96815.97
2023-03-27T02:11:09.347Z,96834.16
2023-03-27T02:13:39.865Z,96829.94
2023-03-27T02:16:09.334Z,96836.69
2023-03-27T02:18:39.286Z,96849.69
2023-03-27T02:21:07.513Z,96846.34
2023-03-27T02:23:38.091Z,96854.13
2023-03-27T02:26:06.231Z,96858.44
2023-03-27T02:29:04.178Z,96857.59
2023-03-27T02:31:50.932Z,96871.59
2023-03-27T02:34:58.732Z,96875.13
2023-03-27T02:37:32.315Z,96888.16
2023-03-27T02:40:13.658Z,96886.50
2023-03-27T02:42:46.829Z,96892.47
2023-03-27T02:45:20.928Z,96895.00
2023-03-27T02:47:52.120Z,96906.31
2023-03-27T02:50:22.089Z,96896.81
2023-03-27T02:52:53.256Z,96901.13
2023-03-27T02:55:25.277Z,96904.63
2023-03-27T02:57:56.662Z,96914.97
2023-03-27T03:00:28.448Z,96923.75
2023-03-27T03:03:01.744Z,96933.97
2023-03-27T03:05:29.747Z,96944.38
2023-03-27T03:07:58.163Z,96930.66
2023-03-27T03:10:26.557Z,96953.09
2023-03-27T03:12:54.352Z,96963.47
2023-03-27T03:15:22.070Z,96966.03
2023-03-27T03:17:51.252Z,96969.56
2023-03-27T03:20:19.056Z,96970.50
2023-03-27T03:22:46.814Z,96973.88
2023-03-27T03:25:14.879Z,96979.19
2023-03-27T03:27:44.245Z,96985.28
2023-03-27T03:30:16.674Z,96994.72
2023-03-27T03:32:47.441Z,96993.91
2023-03-27T03:35:16.710Z,96989.69
2023-03-27T03:37:51.114Z,97007.72
2023-03-27T03:40:19.856Z,97010.28
2023-03-27T03:42:47.985Z,97018.97
2023-03-27T03:45:16.060Z,97018.13
2023-03-27T03:47:44.153Z,97013.00
2023-03-27T03:50:12.569Z,97027.63
2023-03-27T03:52:41.921Z,97024.25
2023-03-27T03:55:11.756Z,97032.88
2023-03-27T03:57:39.641Z,97042.38
2023-03-27T04:00:12.153Z,97051.91
2023-03-27T04:02:41.429Z,97057.97
2023-03-27T04:05:10.308Z,97060.53
2023-03-27T04:07:40.184Z,97058.78
2023-03-27T04:10:10.841Z,97076.13
2023-03-27T04:12:38.607Z,97084.66
2023-03-27T04:15:07.739Z,97089.03
2023-03-27T04:17:35.525Z,97108.97
2023-03-27T04:20:05.291Z,97102.88
2023-03-27T04:22:37.956Z,97103.84
2023-03-27T04:25:07.062Z,97104.09
2023-03-27T04:27:36.755Z,97122.03
2023-03-27T04:30:04.973Z,97128.00
2023-03-27T04:32:32.786Z,97133.19
2023-03-27T04:35:00.926Z,97150.47
2023-03-27T04:37:28.889Z,97113.28
2023-03-27T04:39:56.632Z,97163.44
2023-03-27T04:42:24.327Z,97160.84
2023-03-27T04:44:53.448Z,97166.03
2023-03-27T04:47:21.472Z,97177.19
2023-03-27T04:49:51.186Z,97187.69
2023-03-27T04:52:19.327Z,97192.03
2023-03-27T04:54:48.354Z,97194.59
2023-03-27T04:57:18.985Z,97194.56
2023-03-27T04:59:46.917Z,97199.81
2023-03-27T05:02:16.492Z,97210.34
2023-03-27T05:04:44.265Z,97206.91
2023-03-27T05:07:12.513Z,97223.31
2023-03-27T05:09:40.279Z,97225.13
2023-03-27T05:12:08.758Z,97206.84
2023-03-27T05:14:36.795Z,97244.00
2023-03-27T05:17:04.617Z,97246.56
2023-03-27T05:19:33.762Z,97251.75
2023-03-27T05:22:01.730Z,97264.56
2023-03-27T05:24:29.524Z,97263.72
2023-03-27T05:26:57.276Z,97269.75
2023-03-27T05:29:25.886Z,97267.09
2023-03-27T05:31:53.898Z,97272.25
2023-03-27T05:34:21.899Z,97274.00
2023-03-27T05:36:51.284Z,97288.63
2023-03-27T05:39:19.903Z,97285.22
2023-03-27T05:41:47.635Z,97288.75
2023-03-27T05:44:15.454Z,97298.13
2023-03-27T05:46:43.633Z,97300.50
2023-03-27T05:49:11.429Z,97309.06
2023-03-27T05:51:39.170Z,97308.97
2023-03-27T05:54:16.563Z,97315.66
2023-03-27T05:56:44.365Z,97325.00
2023-03-27T05:59:13.059Z,97330.78
2023-03-27T06:01:40.810Z,97333.22
2023-03-27T06:04:09.333Z,97352.03
2023-03-27T06:06:37.288Z,97347.53
2023-03-27T06:09:05.978Z,97354.28
2023-03-27T06:11:35.176Z,97361.03
2023-03-27T06:14:02.962Z,97367.81
2023-03-27T06:16:30.787Z,97380.44
2023-03-27T06:18:59.018Z,97369.03
2023-03-27T06:21:26.794Z,97379.94
2023-03-27T06:23:56.334Z,97387.56
2023-03-27T06:26:24.132Z,97400.22
2023-03-27T06:28:53.408Z,97398.84
2023-03-27T06:31:22.114Z,97401.56
2023-03-27T06:33:50.246Z,97415.25
2023-03-27T06:36:18.181Z,97414.22
2023-03-27T06:38:46.013Z,97416.00
2023-03-27T06:41:13.885Z,97421.97
2023-03-27T06:43:41.582Z,97420.78
2023-03-27T06:46:10.783Z,97420.63
2023-03-27T06:48:39.578Z,97431.53
2023-03-27T06:51:08.015Z,97435.66
2023-03-27T06:53:38.090Z,97433.59
2023-03-27T06:56:07.011Z,97445.50
2023-03-27T06:58:34.750Z,97447.00
2023-03-27T07:01:02.693Z,97450.25
2023-03-27T07:03:31.808Z,97458.44
2023-03-27T07:06:00.696Z,97464.72
2023-03-27T07:08:28.786Z,97466.38
2023-03-27T07:11:10.906Z,97473.72
2023-03-27T07:13:46.194Z,97474.59
2023-03-27T07:16:13.977Z,97477.56
2023-03-27T07:18:43.072Z,97482.41
2023-03-27T07:21:12.940Z,97484.16
2023-03-27T07:23:40.924Z,97494.59
2023-03-27T07:26:08.696Z,97495.53
2023-03-27T07:28:38.475Z,97490.31
2023-03-27T07:31:27.609Z,97480.81
2023-03-27T07:34:00.251Z,97502.31
2023-03-27T07:36:28.872Z,97510.63
2023-03-27T07:38:56.905Z,97510.78
2023-03-27T07:41:24.687Z,97509.34
2023-03-27T07:43:52.423Z,97510.63
2023-03-27T07:46:20.263Z,97521.94
2023-03-27T07:48:48.084Z,97525.03
2023-03-27T07:51:17.872Z,97520.75
2023-03-27T07:53:45.746Z,97513.44
2023-03-27T07:56:13.979Z,97522.88
2023-03-27T07:58:42.652Z,97526.34
2023-03-27T08:01:11.630Z,97526.94
2023-03-27T08:03:39.813Z,97534.69
2023-03-27T08:06:08.729Z,97534.91
2023-03-27T08:08:37.931Z,97542.22
2023-03-27T08:11:09.623Z,97546.03
2023-03-27T08:13:41.443Z,97548.78
2023-03-27T08:16:10.770Z,97552.09
2023-03-27T08:18:38.948Z,97540.72
2023-03-27T08:21:08.488Z,97547.72
2023-03-27T08:23:38.254Z,97553.88
2023-03-27T08:26:06.857Z,97548.44
2023-03-27T08:28:36.013Z,97567.19
2023-03-27T08:31:10.286Z,97561.41
2023-03-27T08:33:38.194Z,97568.53
2023-03-27T08:36:08.207Z,97570.00
2023-03-27T08:38:39.563Z,97574.28
2023-03-27T08:41:08.089Z,97583.41
2023-03-27T08:43:38.780Z,97578.56
2023-03-27T08:46:08.486Z,97579.63
2023-03-27T08:48:41.245Z,97585.13
2023-03-27T08:51:12.287Z,97585.13
2023-03-27T08:53:46.136Z,97584.19
2023-03-27T08:56:16.020Z,97590.13
2023-03-27T08:58:44.043Z,97592.09
2023-03-27T09:01:16.584Z,97597.03
2023-03-27T09:03:48.383Z,97595.41
2023-03-27T09:06:24.972Z,97589.78
2023-03-27T09:08:58.408Z,97593.81
2023-03-27T09:11:34.141Z,97589.75
2023-03-27T09:14:02.643Z,97590.25
2023-03-27T09:16:31.971Z,97593.66
2023-03-27T09:19:03.422Z,97564.91
2023-03-27T09:21:37.658Z,97590.53
2023-03-27T09:24:10.174Z,97595.84
2023-03-27T09:26:38.453Z,97572.94
2023-03-27T09:29:14.033Z,97601.44
2023-03-27T09:31:49.754Z,97621.88
2023-03-27T09:34:24.624Z,97635.63
2023-03-27T09:36:52.567Z,97658.63
2023-03-27T09:39:26.877Z,97664.25
2023-03-27T09:41:56.558Z,97669.47
2023-03-27T09:44:26.418Z,97656.53
2023-03-27T09:46:58.927Z,97658.16
2023-03-27T09:49:26.995Z,97653.28
2023-03-27T09:51:56.716Z,97656.75
2023-03-27T09:54:29.040Z,97653.09
2023-03-27T09:57:01.929Z,97656.69
2023-03-27T09:59:32.279Z,97662.94
2023-03-27T10:02:01.642Z,97654.56
2023-03-27T10:04:30.256Z,97651.22
2023-03-27T10:07:01.674Z,97661.91
2023-03-27T10:09:32.122Z,97659.81
2023-03-27T10:12:09.208Z,97651.25
2023-03-27T10:14:39.877Z,97661.97
2023-03-27T10:17:07.996Z,97654.44
2023-03-27T10:19:38.735Z,97653.28
2023-03-27T10:22:16.675Z,97657.38
2023-03-27T10:24:47.312Z,97658.47
2023-03-27T10:27:20.386Z,97658.50
2023-03-27T10:29:48.127Z,97656.19
2023-03-27T10:32:15.910Z,97650.75
2023-03-27T10:34:53.277Z,97640.91
2023-03-27T10:37:27.408Z,97647.91
2023-03-27T10:39:58.768Z,97652.41
2023-03-27T10:42:28.143Z,97637.94
2023-03-27T10:44:57.604Z,97644.72
2023-03-27T10:47:26.923Z,97642.16
2023-03-27T10:50:05.033Z,97648.09
2023-03-27T10:52:39.856Z,97651.47
2023-03-27T10:55:22.692Z,97650.34
2023-03-27T10:57:54.438Z,97639.84
2023-03-27T11:00:32.578Z,97652.59
2023-03-27T11:03:05.297Z,97648.63
2023-03-27T11:05:34.974Z,97651.88
2023-03-27T11:08:08.523Z,97644.41
2023-03-27T11:10:40.620Z,97668.50
2023-03-27T11:13:11.796Z,97665.69
2023-03-27T11:15:42.378Z,97659.25
2023-03-27T11:18:15.584Z,97665.47
2023-03-27T11:20:46.133Z,97671.53
2023-03-27T11:23:17.759Z,97673.25
2023-03-27T11:25:48.206Z,97677.72
2023-03-27T11:28:22.420Z,97685.13
2023-03-27T11:30:53.181Z,97661.75
2023-03-27T11:33:39.617Z,97693.69
2023-03-27T11:36:16.158Z,97684.78
2023-03-27T11:38:47.581Z,97698.16
2023-03-27T11:41:16.948Z,97700.13
2023-03-27T11:43:44.948Z,97690.41
2023-03-27T11:46:24.482Z,97690.84
2023-03-27T11:49:02.626Z,97697.03
2023-03-27T11:51:42.775Z,97692.91
2023-03-27T11:54:19.230Z,97699.66
2023-03-27T11:56:54.495Z,97700.88
2023-03-27T11:59:34.529Z,97698.56
2023-03-27T12:02:09.146Z,97725.91
2023-03-27T12:04:42.568Z,97749.50
2023-03-27T12:07:26.378Z,97754.59
2023-03-27T12:10:12.896Z,97755.38
2023-03-27T12:12:52.094Z,97750.34
2023-03-27T12:15:38.273Z,97739.75
2023-03-27T12:18:17.861Z,97735.28
2023-03-27T12:21:15.466Z,97737.47
2023-03-27T12:24:11.770Z,97736.94
2023-03-27T12:26:52.385Z,97717.94
2023-03-27T12:29:33.751Z,97719.97
2023-03-27T12:32:12.495Z,97713.03
2023-03-27T12:34:53.301Z,97664.25
2023-03-27T12:37:24.475Z,97693.88
2023-03-27T12:39:54.066Z,97711.50
2023-03-27T12:42:44.504Z,97706.38
2023-03-27T12:45:19.551Z,97702.56
2023-03-27T12:48:06.396Z,97696.56
2023-03-27T12:50:36.949Z,97692.06
2023-03-27T12:53:05.631Z,97701.69
2023-03-27T12:55:35.676Z,97702.72
2023-03-27T12:58:05.487Z,97696.59
2023-03-27T13:00:34.838Z,97698.69
2023-03-27T13:03:31.380Z,97690.06
2023-03-27T13:06:15.528Z,97699.13
2023-03-27T13:09:05.701Z,97696.09
2023-03-27T13:11:42.389Z,97700.72
2023-03-27T13:14:35.526Z,97704.56
2023-03-27T13:17:15.133Z,97704.81
2023-03-27T13:19:51.879Z,97709.41
2023-03-27T13:22:34.706Z,97676.09
2023-03-27T13:25:16.038Z,97692.94
2023-03-27T13:27:52.569Z,97687.91
2023-03-27T13:30:48.844Z,97694.97
2023-03-27T13:33:25.153Z,97685.38
2023-03-27T13:36:08.176Z,97692.78
2023-03-27T13:38:49.190Z,97715.66
2023-03-27T13:41:55.828Z,97701.72
2023-03-27T13:44:30.036Z,97698.00
2023-03-27T13:47:02.341Z,97709.91
2023-03-27T13:49:52.327Z,97723.31
2023-03-27T13:52:37.790Z,97733.06
2023-03-27T13:55:37.128Z,97744.38
2023-03-27T13:58:16.072Z,97732.19
2023-03-27T14:01:00.529Z,97737.19
2023-03-27T14:03:45.273Z,97729.06
2023-03-27T14:06:32.621Z,97713.47
2023-03-27T14:09:07.956Z,97716.38
2023-03-27T14:11:46.311Z,97699.59
2023-03-27T14:14:42.678Z,97716.19
2023-03-27T14:17:24.200Z,97705.41
2023-03-27T14:20:14.213Z,97695.13
2023-03-27T14:22:49.285Z,97722.09
2023-03-27T14:25:19.880Z,97718.03
2023-03-27T14:27:51.615Z,97711.69
2023-03-27T14:30:21.745Z,97729.03
2023-03-27T14:32:50.149Z,97723.44
2023-03-27T14:35:30.242Z,97735.13
2023-03-27T14:38:01.185Z,97726.66
2023-03-27T14:40:32.414Z,97731.00
2023-03-27T14:43:02.035Z,97740.88
2023-03-27T14:45:33.084Z,97757.50
2023-03-27T14:48:03.828Z,97755.19
2023-03-27T14:50:34.505Z,97784.59
2023-03-27T14:53:08.940Z,97773.34
2023-03-27T14:55:38.313Z,97785.81
2023-03-27T14:58:11.475Z,97804.47
2023-03-27T15:00:41.193Z,97805.78
2023-03-27T15:03:14.657Z,97805.47
2023-03-27T15:06:00.790Z,97794.22
2023-03-27T15:08:33.968Z,97797.19
2023-03-27T15:11:01.760Z,97792.81
2023-03-27T15:13:35.376Z,97789.25
2023-03-27T15:16:06.680Z,97776.53
2023-03-27T15:18:36.475Z,97773.91
2023-03-27T15:21:06.331Z,97782.63
2023-03-27T15:23:40.077Z,97748.38
2023-03-27T15:26:12.134Z,97790.66
2023-03-27T15:28:42.402Z,97784.81
2023-03-27T15:31:10.953Z,97797.53
2023-03-27T15:33:42.791Z,97790.22
2023-03-27T15:36:26.438Z,97775.09
2023-03-27T15:38:56.248Z,97798.78
2023-03-27T15:41:44.055Z,97774.56
2023-03-27T15:44:14.589Z,97794.88
2023-03-27T15:46:48.877Z,97799.72
2023-03-27T15:49:22.021Z,97783.38
2023-03-27T15:51:49.871Z,97787.88
2023-03-27T15:54:36.172Z,97797.56
2023-03-27T15:57:14.871Z,97793.22
2023-03-27T15:59:52.082Z,97794.00
2023-03-27T16:02:21.542Z,97797.75
2023-03-27T16:04:53.117Z,97794.25
2023-03-27T16:07:23.572Z,97787.28
2023-03-27T16:09:55.238Z,97810.94
2023-03-27T16:12:28.299Z,97820.00
2023-03-27T16:14:58.256Z,97810.69
2023-03-27T16:17:34.666Z,97819.88
2023-03-27T16:20:07.430Z,97822.81
2023-03-27T16:22:37.242Z,97821.50
2023-03-27T16:25:08.655Z,97854.19
2023-03-27T16:27:38.871Z,97848.56
2023-03-27T16:30:09.230Z,97838.91
2023-03-27T16:32:37.198Z,97814.47
2023-03-27T16:35:05.371Z,97835.50
2023-03-27T16:37:33.214Z,97831.41
2023-03-27T16:40:01.045Z,97824.06
2023-03-27T16:42:30.420Z,97829.50
2023-03-27T16:44:58.165Z,97834.84
2023-03-27T16:47:25.992Z,97835.41
2023-03-27T16:50:10.408Z,97836.97
2023-03-27T16:52:39.510Z,97819.25
2023-03-27T16:55:08.389Z,97848.63
2023-03-27T16:57:37.583Z,97849.00
2023-03-27T17:00:06.887Z,97839.00
2023-03-27T17:02:36.442Z,97845.53
2023-03-27T17:05:04.714Z,97859.78
2023-03-27T17:07:32.614Z,97855.16
2023-03-27T17:10:00.940Z,97830.06
2023-03-27T17:12:29.909Z,97875.06
2023-03-27T17:14:59.053Z,97878.72
2023-03-27T17:17:27.539Z,97888.16
2023-03-27T17:19:55.487Z,97894.19
2023-03-27T17:22:23.286Z,97910.66
2023-03-27T17:24:56.761Z,97912.38
2023-03-27T17:27:26.722Z,97926.00
2023-03-27T17:29:55.637Z,97932.72
2023-03-27T17:32:25.553Z,97921.16
2023-03-27T17:34:53.560Z,97911.84
2023-03-27T17:37:21.678Z,97913.25
2023-03-27T17:39:49.524Z,97923.34
2023-03-27T17:42:17.420Z,97903.88
2023-03-27T17:44:45.672Z,97919.38
2023-03-27T17:47:13.879Z,97918.81
2023-03-27T17:49:43.265Z,97924.16
2023-03-27T17:52:12.071Z,97923.47
2023-03-27T17:54:40.298Z,97929.78
2023-03-27T17:57:08.338Z,97934.38
2023-03-27T17:59:36.608Z,97932.78
2023-03-27T18:02:04.654Z,97934.78
2023-03-27T18:04:33.195Z,97939.09
2023-03-27T18:07:02.339Z,97952.97
2023-03-27T18:09:30.441Z,97946.94
2023-03-27T18:11:58.182Z,97956.50
2023-03-27T18:14:26.202Z,97955.72
2023-03-27T18:16:54.061Z,97961.16
2023-03-27T18:19:24.093Z,97963.03
2023-03-27T18:21:51.850Z,97963.19
2023-03-27T18:24:21.009Z,97966.72
2023-03-27T18:26:49.066Z,97979.84
2023-03-27T18:29:16.888Z,97970.44
2023-03-27T18:31:44.996Z,97982.56
2023-03-27T18:34:12.796Z,97981.00
2023-03-27T18:36:40.642Z,97984.53
2023-03-27T18:39:08.554Z,97969.94
2023-03-27T18:41:39.634Z,97965.75
2023-03-27T18:44:07.536Z,97979.63
2023-03-27T18:46:35.294Z,97978.00
2023-03-27T18:49:13.496Z,97975.41
2023-03-27T18:51:49.573Z,97980.66
2023-03-27T18:54:17.395Z,97990.22
2023-03-27T18:56:46.704Z,97998.94
2023-03-27T18:59:14.528Z,97990.34
2023-03-27T19:01:42.281Z,97997.41
2023-03-27T19:04:10.976Z,97995.69
2023-03-27T19:06:39.023Z,97993.06
2023-03-27T19:09:06.953Z,97993.13
2023-03-27T19:11:34.698Z,98003.47
2023-03-27T19:14:03.929Z,98006.06
2023-03-27T19:16:32.160Z,98003.53
2023-03-27T19:18:59.920Z,98012.13
2023-03-27T19:21:27.718Z,98006.97
2023-03-27T19:23:55.752Z,98004.53
2023-03-27T19:26:23.544Z,98014.00
2023-03-27T19:28:51.448Z,98009.81
2023-03-27T19:31:20.862Z,98017.72
2023-03-27T19:33:48.770Z,98029.00
2023-03-27T19:36:17.148Z,98029.00
2023-03-27T19:38:45.142Z,98034.31
2023-03-27T19:41:12.893Z,98031.00
2023-03-27T19:43:40.671Z,98029.19
2023-03-27T19:46:18.530Z,98018.78
2023-03-27T19:48:49.677Z,98029.25
2023-03-27T19:51:17.429Z,98030.16
2023-03-27T19:53:45.185Z,98037.94
2023-03-27T19:56:12.926Z,98048.41
2023-03-27T19:58:44.178Z,98044.09
2023-03-27T20:01:11.979Z,98043.25
2023-03-27T20:03:39.973Z,98051.13
2023-03-27T20:06:13.379Z,98052.84
2023-03-27T20:08:42.926Z,98052.91
2023-03-27T20:11:10.657Z,98053.88
2023-03-27T20:13:52.947Z,98053.03
2023-03-27T20:16:22.295Z,98063.41
2023-03-27T20:18:55.308Z,98061.69
2023-03-27T20:21:25.664Z,98055.91
2023-03-27T20:23:54.826Z,98062.78
2023-03-27T20:26:23.509Z,98063.69
2023-03-27T20:28:52.057Z,98063.75
2023-03-27T20:31:20.682Z,98060.28
2023-03-27T20:33:48.755Z,98062.03
2023-03-27T20:36:19.746Z,98064.59
2023-03-27T20:38:48.929Z,98063.69
2023-03-27T20:41:16.897Z,98062.94
2023-03-27T20:43:46.915Z,98059.47
2023-03-27T20:46:15.175Z,98064.63
2023-03-27T20:48:54.337Z,98055.16
2023-03-27T20:51:24.256Z,98054.31
2023-03-27T20:53:58.099Z,98063.88
2023-03-27T20:56:26.217Z,98071.72
2023-03-27T20:58:54.013Z,98063.06
2023-03-27T21:01:27.883Z,98066.50
2023-03-27T21:03:58.451Z,98063.03
2023-03-27T21:06:26.543Z,98075.16
2023-03-27T21:08:55.918Z,98071.47
2023-03-27T21:11:23.659Z,98074.19
2023-03-27T21:13:51.520Z,98071.69
2023-03-27T21:16:19.481Z,98069.97
2023-03-27T21:18:47.194Z,98069.16
2023-03-27T21:21:15.009Z,98061.44
2023-03-27T21:23:42.704Z,98075.28
2023-03-27T21:26:11.830Z,98070.22
2023-03-27T21:28:39.667Z,98066.84
2023-03-27T21:31:08.424Z,98075.59
2023-03-27T21:33:36.205Z,98079.06
2023-03-27T21:36:04.852Z,98078.22
2023-03-27T21:38:32.646Z,98072.25
2023-03-27T21:41:02.366Z,98083.56
2023-03-27T21:43:31.760Z,98080.13
2023-03-27T21:46:01.891Z,98065.56
2023-03-27T21:48:30.227Z,98086.16
2023-03-27T21:51:01.319Z,98094.75
2023-03-27T21:53:29.430Z,98087.91
2023-03-27T21:55:57.649Z,98087.03
2023-03-27T21:58:25.853Z,98091.38
2023-03-27T22:00:57.231Z,98063.19
2023-03-27T22:03:25.746Z,98091.53
2023-03-27T22:06:08.030Z,98096.75
2023-03-27T22:08:39.056Z,98108.84
2023-03-27T22:11:07.255Z,98114.03
2023-03-27T22:13:35.906Z,98107.09
2023-03-27T22:16:08.659Z,98109.69
2023-03-27T22:18:36.650Z,98111.34
2023-03-27T22:21:16.491Z,98117.28
2023-03-27T22:23:44.415Z,98116.44
2023-03-27T22:26:12.613Z,98123.31
2023-03-27T22:28:40.375Z,98119.03
2023-03-27T22:31:10.012Z,98132.81
2023-03-27T22:33:38.135Z,98132.03
2023-03-27T22:36:06.873Z,98129.44
2023-03-27T22:38:35.312Z,98127.72
2023-03-27T22:41:05.886Z,98150.16
2023-03-27T22:43:34.208Z,98141.56
2023-03-27T22:46:06.492Z,98139.91
2023-03-27T22:48:36.228Z,98144.22
2023-03-27T22:51:04.349Z,98152.00
2023-03-27T22:53:32.806Z,98160.66
2023-03-27T22:56:01.708Z,98158.13
2023-03-27T22:58:30.539Z,98152.19
2023-03-27T23:00:58.767Z,98161.50
2023-03-27T23:03:28.307Z,98163.25
2023-03-27T23:05:57.925Z,98164.09
2023-03-27T23:08:28.578Z,98157.28
2023-03-27T23:10:57.351Z,98158.16
2023-03-27T23:13:25.540Z,98167.78
2023-03-27T23:15:53.446Z,98165.22
2023-03-27T23:18:23.948Z,98174.75
2023-03-27T23:20:55.158Z,98174.66
2023-03-27T23:23:24.666Z,98178.19
2023-03-27T23:25:52.435Z,98188.50
2023-03-27T23:28:20.575Z,98185.03
2023-03-27T23:30:54.005Z,98185.94
2023-03-27T23:33:22.760Z,98178.19
2023-03-27T23:35:50.617Z,98184.22
2023-03-27T23:38:18.419Z,98177.41
2023-03-27T23:40:47.448Z,98192.09
2023-03-27T23:43:15.174Z,98197.28
2023-03-27T23:45:44.141Z,98198.19
2023-03-27T23:48:11.900Z,98199.03
2023-03-27T23:50:39.635Z,98203.34
2023-03-27T23:53:07.418Z,98212.00
2023-03-27T23:55:35.294Z,98204.22
2023-03-27T23:58:04.405Z,98212.84
